HRYR/KGL METAR and TAF weather

Enter ICAO airport designator
Station Type Date Time Source
HRYR METAR 2019/06/20 07:00 UTC NOAA

HRYR 200700Z  19003KT 9999  FEW026   22/15 Q1024 NOSIG


Station Type Date Time Source
HRYR Decoded METAR 2019/06/20 07:00 UTC NOAA

Kigali, Rwanda (HRYR) 01-58S 030-07E 1497M
Jun 20, 2019 - 03:00 AM EDT / 2019.06.20 0700 UTC
Wind: from the S (190 degrees) at 3 MPH (3 KT):0
Sky conditions: mostly clear
Pressure (altimeter): 30.24 in. Hg (1024 hPa)
ob: HRYR 200700Z  19003KT 9999  FEW026   22/15 Q1024 NOSIG
cycle: 7

Station Type Date Time Source
HRYR TAF 2019/06/20 06:57 UTC NOAA

TAF HRYR 200500Z 2006/2112 23005KT 9999 FEW026
BECMG 2010/2013 15012KT SCT025 FM 201600 24006KT FEW026
BECMG 2102/2105 34004KT SCT026 FM 210900 16007KT BKN025

Example: see airport list